Private Wetterstation Wechselburg
Wetterdaten: Woche 13.02.23 - 19.02.23 (KW7)
Datum Zeit Temp. +2m Bodentemp. Temp.+5cm Temp. Wind Windchill X Diff Temp. Feuchte +2m Feuchte +5cm Luftdruck Regen Wind Richtung Sonnenschein Taupunkt Windchill Windben
13.02.2023 00:00 3,6 C 5,6 C 13,1 C 5,4 C 5,4 C 1,8 C 89 % 99 % 1037,9 hPa 0,0 l/m 0,0 km/h (0 Bft) N 0,00 h 1,9 C 5,4 C 0,0 km/h (0 Bft)
13.02.2023 01:00 3,5 C 5,6 C 12,1 C 5,4 C 5,4 C 1,9 C 89 % 99 % 1037,5 hPa 0,0 l/m 0,0 km/h (0 Bft) N 0,00 h 1,8 C 5,4 C 0,0 km/h (0 Bft)
13.02.2023 02:00 3,5 C 5,8 C 11,3 C 5,3 C 5,3 C 1,8 C 89 % 99 % 1037,5 hPa 0,0 l/m 0,0 km/h (0 Bft) N 0,00 h 1,9 C 5,3 C 0,0 km/h (0 Bft)
13.02.2023 03:00 3,3 C 5,8 C 8,1 C 5,2 C 5,2 C 1,9 C 89 % 99 % 1037,2 hPa 0,0 l/m 0,0 km/h (0 Bft) N 0,00 h 1,6 C 5,2 C 0,0 km/h (0 Bft)
13.02.2023 04:00 3,2 C 5,8 C 5,9 C 5,1 C 5,1 C 1,9 C 89 % 99 % 1036,7 hPa 0,0 l/m 0,0 km/h (0 Bft) N 0,00 h 1,6 C 5,1 C 0,0 km/h (0 Bft)
13.02.2023 05:00 2,9 C 5,8 C 6,4 C 4,7 C 4,7 C 1,8 C 89 % 99 % 1036,8 hPa 0,0 l/m 0,0 km/h (0 Bft) N 0,00 h 1,3 C 4,7 C 0,0 km/h (0 Bft)
13.02.2023 06:00 2,7 C 5,8 C 7,3 C 4,5 C 4,5 C 1,8 C 89 % 99 % 1037,3 hPa 0,0 l/m 0,0 km/h (0 Bft) N 0,00 h 1,1 C 4,5 C 0,0 km/h (0 Bft)
13.02.2023 07:00 2,6 C 5,8 C 5,6 C 4,3 C 4,3 C 1,7 C 89 % 99 % 1037,3 hPa 0,0 l/m 0,0 km/h (0 Bft) N 0,33 h 1,0 C 4,3 C 0,0 km/h (0 Bft)
13.02.2023 08:00 2,4 C 5,9 C 4,5 C 4,4 C 4,4 C 2,0 C 89 % 99 % 1037,3 hPa 0,0 l/m 0,1 km/h (0 Bft) N 1,00 h 0,8 C 4,4 C 0,5 km/h (0 Bft)
13.02.2023 09:00 2,8 C 5,9 C 8,1 C 5,3 C 5,3 C 2,6 C 89 % 99 % 1037,3 hPa 0,0 l/m 0,2 km/h (0 Bft) S-SW 0,25 h 1,1 C 5,3 C 0,8 km/h (0 Bft)
13.02.2023 10:00 3,2 C 6,0 C 12,8 C 6,1 C 6,1 C 2,9 C 89 % 99 % 1037,3 hPa 0,0 l/m 2,3 km/h (1 Bft) W-SW 0,08 h 1,5 C 6,1 C 3,3 km/h (1 Bft)
13.02.2023 11:00 2,8 C 6,0 C 8,7 C 5,9 C 5,9 C 3,1 C 89 % 99 % 1037,3 hPa 0,0 l/m 1,4 km/h (1 Bft) S-SO 0,17 h 1,2 C 5,9 C 1,9 km/h (1 Bft)
13.02.2023 12:00 2,9 C 6,0 C 8,4 C 6,3 C 6,3 C 3,5 C 89 % 99 % 1037,3 hPa 0,0 l/m 2,9 km/h (1 Bft) SO 1,00 h 1,2 C 6,3 C 2,8 km/h (1 Bft)
13.02.2023 13:00 3,1 C 6,0 C 8,4 C 6,3 C 6,3 C 3,3 C 89 % 99 % 1037,3 hPa 0,0 l/m 1,4 km/h (1 Bft) SW 0,42 h 1,4 C 6,3 C 1,8 km/h (1 Bft)
13.02.2023 14:00 3,7 C 6,0 C 8,7 C 6,9 C 6,9 C 3,2 C 89 % 99 % 1037,3 hPa 0,0 l/m 1,0 km/h (0 Bft) S 0,27 h 2,0 C 6,9 C 1,5 km/h (1 Bft)
13.02.2023 15:00 4,6 C 5,9 C 9,7 C 7,1 C 7,1 C 2,5 C 89 % 99 % 1037,3 hPa 0,0 l/m 0,2 km/h (0 Bft) N 0,33 h 2,9 C 7,1 C 0,0 km/h (0 Bft)
13.02.2023 16:00 5,4 C 5,9 C 9,6 C 6,4 C 6,4 C 1,0 C 89 % 99 % 1037,2 hPa 0,0 l/m 0,0 km/h (0 Bft) N 0,25 h 3,7 C 6,4 C 0,0 km/h (0 Bft)
13.02.2023 17:00 5,5 C 6,0 C 4,5 C 5,7 C 5,7 C 0,2 C 88 % 99 % 1036,6 hPa 0,0 l/m 0,0 km/h (0 Bft) N 0,17 h 3,6 C 5,7 C 0,0 km/h (0 Bft)
13.02.2023 18:00 5,1 C 6,2 C 3,7 C 5,2 C 5,2 C 0,1 C 88 % 99 % 1036,2 hPa 0,0 l/m 0,0 km/h (0 Bft) N 0,00 h 3,3 C 5,2 C 0,0 km/h (0 Bft)
13.02.2023 19:00 4,8 C 6,2 C 4,0 C 4,9 C 4,9 C 0,1 C 88 % 99 % 1036,2 hPa 0,0 l/m 0,0 km/h (0 Bft) N 0,00 h 3,0 C 4,9 C 0,0 km/h (0 Bft)
13.02.2023 20:00 4,5 C 6,2 C 6,0 C 4,7 C 4,7 C 0,2 C 88 % 99 % 1036,9 hPa 0,0 l/m 0,0 km/h (0 Bft) N 0,00 h 2,7 C 4,7 C 0,0 km/h (0 Bft)
13.02.2023 21:00 4,4 C 6,2 C 6,8 C 4,7 C 4,7 C 0,2 C 88 % 99 % 1036,7 hPa 0,0 l/m 0,1 km/h (0 Bft) N 0,00 h 2,6 C 4,7 C 0,2 km/h (0 Bft)
13.02.2023 22:00 4,4 C 6,3 C 6,2 C 4,8 C 4,8 C 0,4 C 89 % 99 % 1036,8 hPa 0,0 l/m 0,1 km/h (0 Bft) N 0,00 h 2,7 C 4,8 C 0,0 km/h (0 Bft)
13.02.2023 23:00 4,3 C 6,3 C 4,1 C 4,6 C 4,6 C 0,3 C 89 % 99 % 1037,1 hPa 0,0 l/m 0,0 km/h (0 Bft) N 0,00 h 2,6 C 4,6 C 0,0 km/h (0 Bft)
14.02.2023 00:00 4,1 C 6,3 C 4,9 C 4,5 C 4,5 C 0,5 C 89 % 99 % 1037,2 hPa 0,0 l/m 0,0 km/h (0 Bft) N 0,00 h 2,4 C 4,5 C 0,0 km/h (0 Bft)
14.02.2023 01:00 4,0 C 6,3 C 19,9 C 4,5 C 4,5 C 0,5 C 89 % 99 % 1037,1 hPa 0,0 l/m 0,0 km/h (0 Bft) N 0,00 h 2,3 C 4,5 C 0,0 km/h (0 Bft)
14.02.2023 02:00 3,9 C 6,3 C 3,5 C 4,3 C 4,3 C 0,4 C 89 % 99 % 1036,6 hPa 0,0 l/m 0,0 km/h (0 Bft) N 0,00 h 2,2 C 4,3 C 0,0 km/h (0 Bft)
14.02.2023 03:00 3,7 C 6,3 C 25,1 C 4,1 C 4,1 C 0,4 C 89 % 99 % 1036,4 hPa 0,0 l/m 0,1 km/h (0 Bft) N 0,00 h 2,1 C 4,1 C 0,0 km/h (0 Bft)
14.02.2023 04:00 3,5 C 6,3 C 60,9 C 3,9 C 3,9 C 0,4 C 89 % 99 % 1036,2 hPa 0,0 l/m 0,0 km/h (0 Bft) N 0,00 h 1,9 C 3,9 C 0,1 km/h (0 Bft)
14.02.2023 05:00 3,3 C 6,3 C 42,6 C 3,7 C 3,7 C 0,4 C 89 % 99 % 1036,2 hPa 0,0 l/m 0,0 km/h (0 Bft) N 0,00 h 1,7 C 3,7 C 0,0 km/h (0 Bft)
14.02.2023 06:00 3,2 C 6,2 C 73,0 C 3,5 C 3,5 C 0,4 C 89 % 99 % 1035,7 hPa 0,0 l/m 0,0 km/h (0 Bft) N 0,00 h 1,5 C 3,5 C 0,0 km/h (0 Bft)
14.02.2023 07:00 3,0 C 6,2 C 73,0 C 3,4 C 3,4 C 0,4 C 89 % 99 % 1035,6 hPa 0,0 l/m 0,0 km/h (0 Bft) N 0,25 h 1,4 C 3,4 C 0,0 km/h (0 Bft)
14.02.2023 08:00 2,9 C 6,3 C 73,0 C 4,1 C 4,1 C 1,1 C 89 % 99 % 1035,6 hPa 0,0 l/m 0,0 km/h (0 Bft) N 0,00 h 1,3 C 4,1 C 0,0 km/h (0 Bft)
14.02.2023 09:00 3,3 C 6,2 C 67,0 C 5,8 C 5,8 C 2,5 C 89 % 99 % 1035,4 hPa 0,0 l/m 0,0 km/h (0 Bft) N 0,00 h 1,6 C 5,8 C 0,0 km/h (0 Bft)
14.02.2023 10:00 4,3 C 6,0 C 73,0 C 7,5 C 7,5 C 3,2 C 89 % 99 % 1035,6 hPa 0,0 l/m 0,0 km/h (0 Bft) N 0,42 h 2,7 C 7,5 C 0,0 km/h (0 Bft)
14.02.2023 11:00 6,3 C 5,9 C 8,4 C 9,8 C 9,8 C 3,5 C 88 % 99 % 1035,6 hPa 0,0 l/m 0,0 km/h (0 Bft) N 0,58 h 4,5 C 9,8 C 0,0 km/h (0 Bft)
14.02.2023 12:00 7,9 C 6,0 C 9,9 C 13,2 C 13,2 C 5,3 C 83 % 99 % 1035,3 hPa 0,0 l/m 0,0 km/h (0 Bft) N 0,92 h 5,2 C 13,2 C 0,0 km/h (0 Bft)
14.02.2023 13:00 8,7 C 6,1 C 17,8 C 15,6 C 15,6 C 6,9 C 80 % 99 % 1034,6 hPa 0,0 l/m 0,0 km/h (0 Bft) N 1,00 h 5,5 C 15,6 C 0,0 km/h (0 Bft)
14.02.2023 14:00 8,8 C 6,2 C 23,5 C 14,4 C 14,4 C 5,6 C 78 % 99 % 1034,1 hPa 0,0 l/m 0,5 km/h (0 Bft) NO 1,00 h 5,2 C 14,4 C 1,5 km/h (1 Bft)
14.02.2023 15:00 8,7 C 6,4 C 23,8 C 13,1 C 13,1 C 4,4 C 79 % 99 % 1034,1 hPa 0,0 l/m 0,4 km/h (0 Bft) N 1,00 h 5,2 C 13,1 C 0,1 km/h (0 Bft)
14.02.2023 16:00 8,2 C 6,5 C 19,9 C 10,4 C 10,4 C 2,2 C 80 % 99 % 1033,9 hPa 0,0 l/m 0,1 km/h (0 Bft) N 1,00 h 4,9 C 10,4 C 0,0 km/h (0 Bft)
14.02.2023 17:00 6,8 C 6,8 C 20,8 C 6,9 C 6,4 C 0,3 C 81 % 99 % 1033,2 hPa 0,0 l/m 0,0 km/h (0 Bft) N 0,25 h 3,8 C 6,4 C 0,0 km/h (0 Bft)
14.02.2023 18:00 4,4 C 7,0 C 73,0 C 3,9 C 2,8 C 0,0 C 83 % 99 % 1033,1 hPa 0,0 l/m 0,0 km/h (0 Bft) N 0,00 h 1,8 C 2,8 C 0,0 km/h (0 Bft)
14.02.2023 19:00 2,5 C 7,1 C 72,7 C 2,0 C 0,9 C 0,0 C 85 % 99 % 1033,3 hPa 0,0 l/m 0,0 km/h (0 Bft) N 0,00 h 0,2 C 0,9 C 0,0 km/h (0 Bft)
14.02.2023 20:00 1,0 C 7,0 C 66,7 C 0,4 C -0,7 C 0,0 C 86 % 99 % 1033,0 hPa 0,0 l/m 0,0 km/h (0 Bft) N 0,00 h -1,1 C -0,7 C 0,0 km/h (0 Bft)
14.02.2023 21:00 -0,3 C 6,9 C 59,1 C -0,8 C -1,9 C 0,0 C 87 % 99 % 1032,7 hPa 0,0 l/m 0,0 km/h (0 Bft) N 0,00 h -2,1 C -1,9 C 0,0 km/h (0 Bft)
14.02.2023 22:00 -1,2 C 6,8 C 54,7 C -1,6 C -2,5 C 0,0 C 87 % 99 % 1032,4 hPa 0,0 l/m 0,0 km/h (0 Bft) N 0,00 h -3,0 C -2,5 C 0,0 km/h (0 Bft)
14.02.2023 23:00 -1,5 C 6,6 C 52,4 C -1,9 C -2,6 C 0,0 C 88 % 99 % 1032,1 hPa 0,0 l/m 0,0 km/h (0 Bft) N 0,00 h -3,2 C -2,6 C 0,0 km/h (0 Bft)
15.02.2023 00:00 -2,0 C 6,5 C 49,5 C -2,3 C -3,1 C 0,0 C 88 % 99 % 1031,4 hPa 0,0 l/m 0,0 km/h (0 Bft) N 0,00 h -3,6 C -3,1 C 0,0 km/h (0 Bft)
15.02.2023 01:00 -2,4 C 6,4 C 44,1 C -2,9 C -3,8 C 0,0 C 89 % 99 % 1031,2 hPa 0,0 l/m 0,0 km/h (0 Bft) N 0,00 h -4,0 C -3,8 C 0,0 km/h (0 Bft)
15.02.2023 02:00 -2,8 C 6,3 C 37,5 C -3,3 C -4,1 C 0,0 C 89 % 99 % 1031,0 hPa 0,0 l/m 0,0 km/h (0 Bft) N 0,00 h -4,4 C -4,1 C 0,0 km/h (0 Bft)
15.02.2023 03:00 -2,8 C 6,2 C 36,1 C -3,2 C -3,9 C 0,0 C 89 % 99 % 1030,6 hPa 0,0 l/m 0,0 km/h (0 Bft) N 0,00 h -4,4 C -3,9 C 0,0 km/h (0 Bft)
15.02.2023 04:00 -3,1 C 6,0 C 34,2 C -3,4 C -4,1 C 0,0 C 89 % 99 % 1029,9 hPa 0,0 l/m 0,0 km/h (0 Bft) N 0,00 h -4,6 C -4,1 C 0,0 km/h (0 Bft)
15.02.2023 05:00 -3,3 C 5,9 C 30,8 C -3,7 C -4,3 C 0,0 C 89 % 99 % 1029,9 hPa 0,0 l/m 0,0 km/h (0 Bft) N 0,00 h -4,9 C -4,3 C 0,0 km/h (0 Bft)
15.02.2023 06:00 -3,6 C 5,8 C 30,5 C -4,0 C -4,6 C 0,0 C 89 % 99 % 1029,3 hPa 0,0 l/m 0,0 km/h (0 Bft) N 0,00 h -5,2 C -4,6 C 0,0 km/h (0 Bft)
15.02.2023 07:00 -4,0 C 5,7 C 27,6 C -4,3 C -4,9 C 0,0 C 89 % 99 % 1029,5 hPa 0,0 l/m 0,0 km/h (0 Bft) N 0,00 h -5,5 C -4,9 C 0,0 km/h (0 Bft)
15.02.2023 08:00 -3,7 C 5,6 C 30,7 C -3,0 C -3,0 C 0,8 C 89 % 99 % 1029,1 hPa 0,0 l/m 0,0 km/h (0 Bft) N 0,00 h -5,2 C -3,0 C 0,0 km/h (0 Bft)
15.02.2023 09:00 -2,6 C 5,5 C 42,3 C -0,1 C -0,1 C 2,6 C 89 % 99 % 1028,7 hPa 0,0 l/m 0,0 km/h (0 Bft) N 0,33 h -4,2 C -0,1 C 0,0 km/h (0 Bft)
15.02.2023 10:00 -0,3 C 5,4 C 48,5 C 3,6 C 3,6 C 3,9 C 89 % 99 % 1028,1 hPa 0,0 l/m 0,0 km/h (0 Bft) N 0,75 h -1,9 C 3,6 C 0,2 km/h (0 Bft)
15.02.2023 11:00 3,8 C 5,0 C 56,1 C 7,9 C 7,9 C 4,2 C 89 % 99 % 1027,9 hPa 0,0 l/m 0,0 km/h (0 Bft) N 0,92 h 2,1 C 7,9 C 0,6 km/h (0 Bft)
15.02.2023 12:00 9,1 C 5,0 C 68,3 C 14,0 C 14,0 C 4,9 C 73 % 99 % 1027,7 hPa 0,0 l/m 0,7 km/h (0 Bft) SW 0,75 h 4,5 C 14,0 C 1,4 km/h (1 Bft)
15.02.2023 13:00 11,8 C 5,2 C 73,0 C 17,1 C 17,1 C 5,3 C 55 % 99 % 1027,1 hPa 0,0 l/m 1,3 km/h (1 Bft) S-SO 1,00 h 2,9 C 17,1 C 3,8 km/h (1 Bft)
15.02.2023 14:00 13,5 C 5,4 C 25,2 C 18,2 C 18,2 C 4,6 C 48 % 95 % 1026,4 hPa 0,0 l/m 1,5 km/h (1 Bft) SW 1,00 h 2,7 C 18,2 C 3,7 km/h (1 Bft)
15.02.2023 15:00 13,6 C 5,5 C 30,7 C 17,0 C 17,0 C 3,4 C 49 % 67 % 1026,2 hPa 0,0 l/m 0,7 km/h (0 Bft) SW 1,00 h 3,0 C 17,0 C 0,8 km/h (0 Bft)
15.02.2023 16:00 12,7 C 5,7 C 73,0 C 14,4 C 14,4 C 1,8 C 49 % 50 % 1026,2 hPa 0,0 l/m 0,4 km/h (0 Bft) SO 0,92 h 2,3 C 14,4 C 0,7 km/h (0 Bft)
15.02.2023 17:00 10,3 C 5,9 C 73,0 C 10,0 C 9,2 C 0,1 C 54 % 58 % 1026,4 hPa 0,0 l/m 0,0 km/h (0 Bft) N 0,08 h 1,4 C 9,2 C 0,2 km/h (0 Bft)
15.02.2023 18:00 6,6 C 6,1 C 63,6 C 6,0 C 4,8 C 0,0 C 62 % 99 % 1026,2 hPa 0,0 l/m 0,0 km/h (0 Bft) N 0,00 h -0,2 C 4,8 C 0,0 km/h (0 Bft)
15.02.2023 19:00 4,9 C 6,2 C 57,4 C 4,6 C 3,9 C 0,0 C 69 % 99 % 1026,3 hPa 0,0 l/m 0,0 km/h (0 Bft) N 0,00 h -0,3 C 3,9 C 0,0 km/h (0 Bft)
15.02.2023 20:00 5,5 C 6,2 C 61,6 C 5,3 C 4,8 C 0,0 C 69 % 99 % 1026,2 hPa 0,0 l/m 0,4 km/h (0 Bft) S-SO 0,00 h 0,3 C 4,8 C 0,8 km/h (0 Bft)
15.02.2023 21:00 5,3 C 6,3 C 64,7 C 4,9 C 4,3 C 0,0 C 70 % 99 % 1026,2 hPa 0,0 l/m 0,2 km/h (0 Bft) N 0,00 h 0,2 C 4,3 C 0,2 km/h (0 Bft)
15.02.2023 22:00 5,0 C 6,3 C 65,5 C 4,6 C 3,9 C 0,0 C 70 % 99 % 1026,1 hPa 0,0 l/m 0,2 km/h (0 Bft) N 0,00 h -0,1 C 3,9 C 0,2 km/h (0 Bft)
15.02.2023 23:00 4,0 C 6,2 C 61,3 C 3,7 C 3,1 C 0,0 C 73 % 99 % 1025,4 hPa 0,0 l/m 0,5 km/h (0 Bft) SO 0,00 h -0,4 C 3,1 C 1,2 km/h (1 Bft)
16.02.2023 00:00 4,4 C 6,2 C 59,8 C 4,1 C 3,4 C 0,0 C 71 % 99 % 1025,7 hPa 0,0 l/m 0,3 km/h (0 Bft) N 0,00 h -0,4 C 3,4 C 1,1 km/h (0 Bft)
16.02.2023 01:00 4,1 C 6,2 C 59,7 C 3,8 C 3,2 C 0,0 C 72 % 99 % 1025,9 hPa 0,0 l/m 0,5 km/h (0 Bft) S 0,00 h -0,5 C 3,2 C 1,6 km/h (1 Bft)
16.02.2023 02:00 3,8 C 6,1 C 55,3 C 3,5 C 2,8 C 0,0 C 73 % 99 % 1025,6 hPa 0,0 l/m 0,2 km/h (0 Bft) N 0,00 h -0,7 C 2,8 C 0,9 km/h (0 Bft)
16.02.2023 03:00 3,7 C 6,1 C 57,4 C 3,4 C 2,8 C 0,0 C 74 % 99 % 1025,2 hPa 0,0 l/m 0,2 km/h (0 Bft) N 0,00 h -0,5 C 2,8 C 0,0 km/h (0 Bft)
16.02.2023 04:00 3,2 C 6,1 C 55,4 C 2,8 C 2,0 C 0,0 C 75 % 99 % 1025,4 hPa 0,0 l/m 0,1 km/h (0 Bft) N 0,00 h -0,7 C 2,0 C 0,2 km/h (0 Bft)
16.02.2023 05:00 2,8 C 6,1 C 54,8 C 2,4 C 1,6 C 0,0 C 77 % 99 % 1025,2 hPa 0,0 l/m 0,0 km/h (0 Bft) N 0,00 h -0,8 C 1,6 C 0,0 km/h (0 Bft)
16.02.2023 06:00 2,1 C 6,1 C 48,6 C 1,6 C 0,7 C 0,0 C 78 % 99 % 1025,0 hPa 0,0 l/m 0,0 km/h (0 Bft) N 0,00 h -1,3 C 0,7 C 0,0 km/h (0 Bft)
16.02.2023 07:00 2,1 C 6,0 C 42,6 C 1,8 C 1,1 C 0,0 C 80 % 99 % 1024,8 hPa 0,0 l/m 0,1 km/h (0 Bft) N 0,00 h -1,0 C 1,1 C 0,1 km/h (0 Bft)
16.02.2023 08:00 3,1 C 5,9 C 49,9 C 3,6 C 3,5 C 0,5 C 79 % 99 % 1025,2 hPa 0,0 l/m 0,3 km/h (0 Bft) N 0,00 h -0,1 C 3,5 C 0,6 km/h (0 Bft)
16.02.2023 09:00 4,6 C 5,9 C 60,6 C 5,8 C 5,8 C 1,2 C 77 % 99 % 1025,0 hPa 0,0 l/m 0,3 km/h (0 Bft) N 0,00 h 0,8 C 5,8 C 0,3 km/h (0 Bft)
16.02.2023 10:00 5,9 C 5,8 C 62,4 C 7,3 C 7,3 C 1,4 C 73 % 99 % 1025,2 hPa 0,0 l/m 0,3 km/h (0 Bft) S-SW 0,00 h 1,5 C 7,3 C 0,7 km/h (0 Bft)
16.02.2023 11:00 8,0 C 5,9 C 71,9 C 10,2 C 10,2 C 2,2 C 68 % 99 % 1025,3 hPa 0,0 l/m 1,4 km/h (1 Bft) W-SW 0,00 h 2,5 C 10,2 C 4,6 km/h (1 Bft)
16.02.2023 12:00 9,5 C 5,9 C 73,0 C 13,4 C 13,4 C 3,9 C 64 % 99 % 1024,9 hPa 0,0 l/m 1,6 km/h (1 Bft) SW 0,67 h 3,1 C 13,4 C 2,4 km/h (1 Bft)
16.02.2023 13:00 10,6 C 6,1 C 73,0 C 14,6 C 14,6 C 4,0 C 62 % 90 % 1024,2 hPa 0,0 l/m 1,6 km/h (1 Bft) SW 0,75 h 3,6 C 14,6 C 2,5 km/h (1 Bft)
16.02.2023 14:00 11,9 C 6,2 C 73,0 C 16,1 C 16,1 C 4,2 C 59 % 37 % 1023,9 hPa 0,0 l/m 1,5 km/h (1 Bft) S 1,00 h 4,2 C 16,1 C 1,9 km/h (1 Bft)
16.02.2023 15:00 11,7 C 6,4 C 73,0 C 14,1 C 14,1 C 2,4 C 59 % 2 % 1023,8 hPa 0,0 l/m 1,4 km/h (1 Bft) O 0,25 h 4,0 C 14,1 C 2,7 km/h (1 Bft)
16.02.2023 16:00 10,6 C 6,6 C 73,0 C 11,5 C 11,5 C 1,0 C 59 % 11 % 1023,6 hPa 0,0 l/m 1,2 km/h (1 Bft) S-SO 0,17 h 3,0 C 11,5 C 3,1 km/h (1 Bft)
16.02.2023 17:00 9,1 C 6,7 C 73,0 C 9,0 C 8,9 C 0,0 C 61 % 24 % 1023,5 hPa 0,0 l/m 1,8 km/h (1 Bft) SO 0,00 h 2,0 C 8,9 C 3,6 km/h (1 Bft)
16.02.2023 18:00 8,1 C 6,9 C 73,0 C 8,0 C 7,8 C 0,0 C 64 % 98 % 1023,4 hPa 0,0 l/m 1,2 km/h (1 Bft) O-SO 0,00 h 1,7 C 7,8 C 1,7 km/h (1 Bft)
16.02.2023 19:00 7,6 C 7,0 C 73,0 C 7,6 C 7,5 C 0,0 C 70 % 99 % 1023,5 hPa 0,0 l/m 1,1 km/h (0 Bft) SO 0,00 h 2,4 C 7,5 C 2,5 km/h (1 Bft)
16.02.2023 20:00 7,5 C 7,0 C 72,3 C 7,4 C 7,2 C 0,0 C 73 % 99 % 1023,8 hPa 0,0 l/m 0,6 km/h (0 Bft) S-SO 0,00 h 2,9 C 7,2 C 1,6 km/h (1 Bft)
16.02.2023 21:00 7,2 C 7,1 C 71,2 C 7,2 C 7,1 C 0,1 C 76 % 99 % 1023,7 hPa 0,0 l/m 0,4 km/h (0 Bft) SO 0,00 h 3,3 C 7,1 C 0,7 km/h (0 Bft)
16.02.2023 22:00 7,5 C 7,1 C 72,9 C 7,7 C 7,7 C 0,2 C 76 % 99 % 1023,5 hPa 0,0 l/m 0,5 km/h (0 Bft) S-SO 0,00 h 3,6 C 7,7 C 1,8 km/h (1 Bft)
16.02.2023 23:00 7,9 C 7,2 C 70,7 C 8,0 C 8,0 C 0,1 C 76 % 99 % 1022,7 hPa 0,0 l/m 1,4 km/h (1 Bft) S-SO 0,00 h 3,9 C 8,0 C 3,9 km/h (1 Bft)
17.02.2023 00:00 8,1 C 7,2 C 72,1 C 8,2 C 8,2 C 0,1 C 75 % 99 % 1022,5 hPa 0,0 l/m 0,7 km/h (0 Bft) O-NO 0,00 h 3,9 C 8,2 C 2,3 km/h (1 Bft)
17.02.2023 01:00 8,0 C 7,3 C 70,9 C 7,9 C 7,7 C 0,0 C 76 % 99 % 1021,6 hPa 0,0 l/m 1,0 km/h (0 Bft) W-SW 0,00 h 4,1 C 7,7 C 3,0 km/h (1 Bft)
17.02.2023 02:00 8,1 C 7,3 C 66,2 C 8,4 C 8,4 C 0,2 C 76 % 99 % 1021,1 hPa 0,0 l/m 0,8 km/h (0 Bft) O-SO 0,00 h 4,2 C 8,4 C 1,1 km/h (1 Bft)
17.02.2023 03:00 8,3 C 7,3 C 64,5 C 8,5 C 8,5 C 0,2 C 76 % 99 % 1020,3 hPa 0,0 l/m 1,1 km/h (1 Bft) SO 0,00 h 4,4 C 8,5 C 3,6 km/h (1 Bft)
17.02.2023 04:00 8,7 C 7,4 C 64,3 C 9,0 C 9,0 C 0,3 C 76 % 99 % 1019,9 hPa 0,0 l/m 2,9 km/h (1 Bft) SW 0,00 h 4,7 C 9,0 C 4,6 km/h (1 Bft)
17.02.2023 05:00 8,6 C 7,4 C 62,9 C 8,7 C 8,7 C 0,2 C 78 % 99 % 1019,6 hPa 0,0 l/m 3,6 km/h (1 Bft) SW 0,00 h 5,0 C 8,5 C 6,3 km/h (2 Bft)
17.02.2023 06:00 8,5 C 7,5 C 65,4 C 8,8 C 8,8 C 0,3 C 80 % 99 % 1019,1 hPa 0,0 l/m 1,4 km/h (1 Bft) S-SO 0,00 h 5,2 C 8,8 C 4,8 km/h (1 Bft)
17.02.2023 07:00 8,5 C 7,6 C 60,5 C 8,6 C 8,6 C 0,1 C 81 % 99 % 1019,1 hPa 0,0 l/m 4,1 km/h (1 Bft) S-SW 0,00 h 5,4 C 8,4 C 5,9 km/h (2 Bft)
17.02.2023 08:00 8,7 C 7,7 C 60,1 C 9,1 C 9,1 C 0,4 C 82 % 99 % 1019,3 hPa 0,0 l/m 3,0 km/h (1 Bft) O-SO 0,00 h 5,7 C 9,1 C 5,5 km/h (1 Bft)
17.02.2023 09:00 9,1 C 7,7 C 60,4 C 9,6 C 9,6 C 0,5 C 81 % 99 % 1018,9 hPa 0,0 l/m 4,1 km/h (1 Bft) W-SW 0,00 h 6,0 C 9,5 C 9,0 km/h (2 Bft)
17.02.2023 10:00 9,6 C 7,8 C 62,7 C 10,1 C 10,1 C 0,5 C 81 % 99 % 1018,8 hPa 0,0 l/m 5,0 km/h (1 Bft) SO 0,00 h 6,5 C 9,8 C 11,0 km/h (2 Bft)
17.02.2023 11:00 10,2 C 7,9 C 68,9 C 10,8 C 10,7 C 0,6 C 80 % 99 % 1017,9 hPa 0,0 l/m 7,5 km/h (2 Bft) W-SW 0,00 h 7,0 C 10,5 C 9,4 km/h (2 Bft)
17.02.2023 12:00 10,8 C 7,9 C 70,7 C 11,6 C 11,5 C 0,9 C 79 % 99 % 1017,2 hPa 0,0 l/m 6,9 km/h (2 Bft) W-SW 0,00 h 7,3 C 11,5 C 12,1 km/h (2 Bft)
17.02.2023 13:00 11,4 C 8,0 C 72,1 C 11,8 C 11,6 C 0,4 C 79 % 99 % 1016,4 hPa 0,0 l/m 9,3 km/h (2 Bft) S 0,00 h 7,9 C 11,6 C 14,5 km/h (3 Bft)
17.02.2023 14:00 11,8 C 8,1 C 69,3 C 12,4 C 12,2 C 0,6 C 78 % 99 % 1016,2 hPa 0,0 l/m 9,1 km/h (2 Bft) S-SW 0,00 h 8,1 C 12,2 C 12,6 km/h (3 Bft)
17.02.2023 15:00 11,9 C 8,2 C 61,6 C 12,1 C 11,8 C 0,2 C 78 % 99 % 1014,8 hPa 0,0 l/m 9,7 km/h (2 Bft) SW 0,00 h 8,2 C 11,8 C 13,8 km/h (3 Bft)
17.02.2023 16:00 11,9 C 8,4 C 41,8 C 11,7 C 11,1 C 0,0 C 79 % 99 % 1014,7 hPa 0,0 l/m 11,8 km/h (2 Bft) SW 0,00 h 8,4 C 11,1 C 17,0 km/h (3 Bft)
17.02.2023 17:00 12,2 C 8,6 C 31,3 C 12,1 C 11,7 C 0,0 C 78 % 99 % 1015,6 hPa 0,0 l/m 9,2 km/h (2 Bft) SW 0,00 h 8,5 C 11,7 C 13,8 km/h (3 Bft)
17.02.2023 18:00 12,5 C 8,7 C 36,5 C 12,4 C 11,8 C 0,0 C 77 % 99 % 1015,2 hPa 0,0 l/m 11,2 km/h (2 Bft) SW 0,00 h 8,6 C 11,8 C 15,3 km/h (3 Bft)
17.02.2023 19:00 11,9 C 9,0 C 35,6 C 11,6 C 10,9 C 0,0 C 80 % 99 % 1015,6 hPa 1,4 l/m 8,9 km/h (2 Bft) S-SW 0,00 h 8,7 C 10,8 C 10,5 km/h (2 Bft)
17.02.2023 20:00 10,8 C 9,3 C 27,1 C 10,5 C 9,6 C 0,0 C 87 % 99 % 1016,8 hPa 2,1 l/m 8,7 km/h (2 Bft) SW 0,00 h 8,8 C 8,5 C 11,6 km/h (2 Bft)
17.02.2023 21:00 10,7 C 9,3 C 24,8 C 10,3 C 9,1 C 0,0 C 87 % 99 % 1016,8 hPa 0,0 l/m 10,3 km/h (2 Bft) SW 0,00 h 8,6 C 7,5 C 11,9 km/h (2 Bft)
17.02.2023 22:00 10,4 C 9,2 C 22,2 C 10,1 C 9,1 C 0,0 C 84 % 99 % 1018,0 hPa 0,0 l/m 11,0 km/h (2 Bft) SW 0,00 h 7,9 C 7,4 C 14,1 km/h (3 Bft)
17.02.2023 23:00 10,5 C 9,2 C 21,9 C 10,2 C 9,2 C 0,0 C 80 % 99 % 1018,2 hPa 0,0 l/m 10,4 km/h (2 Bft) SW 0,00 h 7,2 C 7,7 C 12,6 km/h (3 Bft)
18.02.2023 00:00 10,0 C 9,2 C 21,1 C 9,7 C 8,9 C 0,0 C 82 % 99 % 1018,5 hPa 0,0 l/m 7,4 km/h (2 Bft) W-SW 0,00 h 7,1 C 7,9 C 11,9 km/h (2 Bft)
18.02.2023 01:00 9,5 C 9,2 C 16,9 C 9,1 C 8,2 C 0,0 C 80 % 99 % 1019,1 hPa 0,0 l/m 8,3 km/h (2 Bft) SW 0,00 h 6,1 C 6,9 C 10,4 km/h (2 Bft)
18.02.2023 02:00 9,2 C 9,3 C 17,4 C 9,0 C 8,6 C 0,0 C 83 % 99 % 1019,0 hPa 0,0 l/m 6,5 km/h (2 Bft) S 0,00 h 6,4 C 7,7 C 8,5 km/h (2 Bft)
18.02.2023 03:00 9,0 C 9,2 C 16,6 C 8,9 C 8,5 C 0,0 C 82 % 99 % 1018,6 hPa 0,0 l/m 6,2 km/h (2 Bft) SW 0,00 h 6,1 C 7,7 C 7,6 km/h (2 Bft)
18.02.2023 04:00 8,6 C 9,1 C 16,6 C 8,4 C 8,0 C 0,0 C 82 % 99 % 1018,7 hPa 0,0 l/m 6,5 km/h (2 Bft) SW 0,00 h 5,7 C 7,0 C 8,8 km/h (2 Bft)
18.02.2023 05:00 8,4 C 9,3 C 13,5 C 8,2 C 7,7 C 0,0 C 85 % 99 % 1018,5 hPa 0,0 l/m 5,7 km/h (1 Bft) S-SW 0,00 h 5,9 C 7,0 C 7,9 km/h (2 Bft)
18.02.2023 06:00 8,3 C 9,4 C 14,6 C 7,8 C 6,9 C 0,0 C 88 % 99 % 1018,0 hPa 0,7 l/m 7,9 km/h (2 Bft) SW 0,00 h 6,3 C 5,4 C 10,1 km/h (2 Bft)
18.02.2023 07:00 7,9 C 9,4 C 13,2 C 8,0 C 7,8 C 0,1 C 88 % 99 % 1017,1 hPa 0,0 l/m 3,2 km/h (1 Bft) O-NO 0,08 h 6,1 C 7,6 C 2,5 km/h (1 Bft)
18.02.2023 08:00 7,9 C 9,3 C 14,1 C 8,6 C 8,6 C 0,7 C 89 % 99 % 1017,1 hPa 0,0 l/m 2,2 km/h (1 Bft) SW 0,00 h 6,1 C 8,5 C 6,0 km/h (2 Bft)
18.02.2023 09:00 9,6 C 9,0 C 20,7 C 10,2 C 10,2 C 0,6 C 87 % 99 % 1016,1 hPa 0,0 l/m 6,2 km/h (2 Bft) SW 0,00 h 7,6 C 10,0 C 8,5 km/h (2 Bft)
18.02.2023 10:00 10,6 C 9,0 C 26,5 C 10,8 C 10,7 C 0,2 C 83 % 99 % 1015,5 hPa 0,0 l/m 6,3 km/h (2 Bft) SW 0,00 h 7,9 C 10,7 C 9,1 km/h (2 Bft)
18.02.2023 11:00 11,2 C 9,0 C 27,4 C 11,4 C 11,2 C 0,2 C 82 % 99 % 1015,0 hPa 0,0 l/m 7,9 km/h (2 Bft) W-SW 0,00 h 8,3 C 11,2 C 8,9 km/h (2 Bft)
18.02.2023 12:00 11,6 C 9,0 C 29,8 C 11,5 C 10,7 C 0,1 C 80 % 99 % 1014,0 hPa 0,0 l/m 11,5 km/h (2 Bft) S 0,00 h 8,3 C 9,9 C 15,2 km/h (3 Bft)
18.02.2023 13:00 10,8 C 9,1 C 24,1 C 10,2 C 8,6 C 0,0 C 81 % 99 % 1014,1 hPa 0,0 l/m 12,5 km/h (3 Bft) SW 0,00 h 7,6 C 6,5 C 17,0 km/h (3 Bft)
18.02.2023 14:00 10,6 C 9,1 C 19,2 C 10,2 C 9,0 C 0,0 C 79 % 99 % 1013,6 hPa 0,0 l/m 10,7 km/h (2 Bft) SW 0,00 h 7,0 C 7,3 C 12,1 km/h (2 Bft)
18.02.2023 15:00 11,0 C 9,1 C 15,2 C 10,7 C 9,8 C 0,0 C 74 % 99 % 1013,7 hPa 0,0 l/m 12,8 km/h (3 Bft) SW 0,00 h 6,6 C 8,6 C 16,0 km/h (3 Bft)
18.02.2023 16:00 11,0 C 9,1 C 15,5 C 10,6 C 9,7 C 0,0 C 74 % 99 % 1014,2 hPa 0,0 l/m 14,1 km/h (3 Bft) SW 0,00 h 6,6 C 7,7 C 19,7 km/h (3 Bft)
18.02.2023 17:00 10,8 C 9,1 C 16,1 C 10,5 C 9,5 C 0,0 C 75 % 99 % 1014,6 hPa 0,0 l/m 12,4 km/h (3 Bft) S-SW 0,00 h 6,6 C 7,6 C 14,8 km/h (3 Bft)
18.02.2023 18:00 10,5 C 9,2 C 17,5 C 10,1 C 8,6 C 0,0 C 78 % 99 % 1015,1 hPa 0,0 l/m 13,6 km/h (3 Bft) SW 0,00 h 6,8 C 6,4 C 16,5 km/h (3 Bft)
18.02.2023 19:00 10,1 C 9,2 C 14,7 C 9,7 C 8,7 C 0,0 C 81 % 99 % 1016,0 hPa 0,0 l/m 10,1 km/h (2 Bft) SW 0,00 h 6,9 C 7,1 C 12,1 km/h (2 Bft)
18.02.2023 20:00 9,5 C 9,4 C 13,9 C 9,2 C 8,4 C 0,0 C 84 % 99 % 1016,8 hPa 0,0 l/m 8,9 km/h (2 Bft) SW 0,00 h 6,9 C 7,0 C 11,3 km/h (2 Bft)
18.02.2023 21:00 9,3 C 9,5 C 13,3 C 9,1 C 8,4 C 0,0 C 85 % 99 % 1016,6 hPa 0,0 l/m 7,5 km/h (2 Bft) S-SW 0,00 h 6,9 C 7,3 C 8,8 km/h (2 Bft)
18.02.2023 22:00 9,3 C 9,4 C 12,9 C 9,1 C 8,7 C 0,0 C 85 % 99 % 1016,9 hPa 0,0 l/m 6,7 km/h (2 Bft) SW 0,00 h 6,9 C 7,8 C 7,8 km/h (2 Bft)
18.02.2023 23:00 9,4 C 9,4 C 13,1 C 9,1 C 8,6 C 0,0 C 83 % 99 % 1016,6 hPa 0,0 l/m 7,0 km/h (2 Bft) SW 0,00 h 6,7 C 7,7 C 8,6 km/h (2 Bft)
19.02.2023 00:00 9,3 C 9,4 C 13,3 C 9,0 C 8,4 C 0,0 C 83 % 99 % 1016,1 hPa 0,0 l/m 6,6 km/h (2 Bft) SW 0,00 h 6,6 C 7,5 C 8,9 km/h (2 Bft)
19.02.2023 01:00 8,8 C 9,5 C 9,3 C 8,6 C 8,3 C 0,0 C 85 % 99 % 1015,9 hPa 0,0 l/m 2,4 km/h (1 Bft) SW 0,00 h 6,4 C 8,3 C 4,0 km/h (1 Bft)
19.02.2023 02:00 8,7 C 9,5 C 8,1 C 8,4 C 7,8 C 0,0 C 86 % 99 % 1014,9 hPa 0,7 l/m 6,0 km/h (2 Bft) S-SW 0,00 h 6,4 C 6,9 C 8,0 km/h (2 Bft)
19.02.2023 03:00 8,1 C 9,6 C 5,4 C 8,0 C 7,9 C 0,0 C 88 % 99 % 1013,8 hPa 2,7 l/m 2,3 km/h (1 Bft) SW 0,00 h 6,2 C 7,9 C 2,9 km/h (1 Bft)
19.02.2023 04:00 7,7 C 9,6 C 3,2 C 7,9 C 7,8 C 0,1 C 89 % 99 % 1013,1 hPa 2,1 l/m 2,6 km/h (1 Bft) SW 0,00 h 5,9 C 7,8 C 3,4 km/h (1 Bft)
19.02.2023 05:00 7,8 C 9,6 C 0,4 C 7,6 C 7,0 C 0,0 C 89 % 99 % 1012,4 hPa 0,7 l/m 6,7 km/h (2 Bft) SW 0,00 h 6,0 C 5,8 C 9,6 km/h (2 Bft)
19.02.2023 06:00 8,3 C 9,6 C 2,7 C 7,9 C 6,8 C 0,0 C 88 % 99 % 1012,4 hPa 1,4 l/m 8,4 km/h (2 Bft) SW 0,00 h 6,5 C 5,2 C 10,2 km/h (2 Bft)
19.02.2023 07:00 8,1 C 9,6 C 0,1 C 8,1 C 8,0 C 0,1 C 89 % 99 % 1013,1 hPa 0,7 l/m 3,9 km/h (1 Bft) SW 0,00 h 6,4 C 7,6 C 5,6 km/h (1 Bft)
19.02.2023 08:00 7,9 C 9,6 C 3,3 C 7,6 C 7,0 C 0,0 C 89 % 99 % 1013,7 hPa 0,0 l/m 7,0 km/h (2 Bft) SW 0,00 h 6,2 C 5,7 C 9,4 km/h (2 Bft)
19.02.2023 09:00 7,0 C 9,5 C 2,5 C 6,9 C 6,7 C 0,0 C 88 % 99 % 1014,5 hPa 2,1 l/m 4,2 km/h (1 Bft) N-NO 0,00 h 5,1 C 6,2 C 5,7 km/h (1 Bft)
19.02.2023 10:00 4,7 C 9,6 C -5,1 C 5,0 C 5,0 C 0,3 C 89 % 99 % 1016,7 hPa 0,7 l/m 1,5 km/h (1 Bft) N-NO 0,00 h 2,9 C 5,0 C 2,3 km/h (1 Bft)
19.02.2023 11:00 3,6 C 9,5 C -7,1 C 4,8 C 4,8 C 1,3 C 89 % 99 % 1018,6 hPa 0,0 l/m 0,8 km/h (0 Bft) N-NO 0,00 h 1,9 C 4,8 C 0,8 km/h (0 Bft)
19.02.2023 12:00 3,6 C 9,3 C -5,2 C 6,4 C 6,4 C 2,7 C 89 % 99 % 1019,7 hPa 0,0 l/m 0,6 km/h (0 Bft) S 0,00 h 2,0 C 6,4 C 2,3 km/h (1 Bft)
19.02.2023 13:00 3,8 C 9,0 C -4,9 C 6,9 C 6,9 C 3,1 C 89 % 99 % 1020,4 hPa 0,0 l/m 1,3 km/h (1 Bft) SW 0,33 h 2,2 C 6,9 C 2,2 km/h (1 Bft)
19.02.2023 14:00 4,2 C 8,7 C -5,9 C 7,1 C 7,1 C 3,0 C 89 % 99 % 1021,0 hPa 0,0 l/m 0,6 km/h (0 Bft) S 0,08 h 2,5 C 7,1 C 0,8 km/h (0 Bft)
19.02.2023 15:00 4,2 C 8,6 C -8,5 C 6,4 C 6,4 C 2,2 C 88 % 99 % 1021,7 hPa 0,0 l/m 0,0 km/h (0 Bft) N 0,17 h 2,4 C 6,4 C 0,0 km/h (0 Bft)
19.02.2023 16:00 5,0 C 8,4 C -11,0 C 7,2 C 7,2 C 2,2 C 86 % 99 % 1022,2 hPa 0,0 l/m 0,2 km/h (0 Bft) N 0,92 h 2,9 C 7,2 C 0,2 km/h (0 Bft)
19.02.2023 17:00 4,4 C 8,4 C -13,8 C 4,1 C 3,5 C 0,0 C 83 % 99 % 1022,6 hPa 0,0 l/m 0,0 km/h (0 Bft) N 0,00 h 1,7 C 3,5 C 0,0 km/h (0 Bft)
19.02.2023 18:00 2,7 C 8,5 C -18,5 C 2,2 C 1,0 C 0,0 C 84 % 99 % 1023,2 hPa 0,0 l/m 0,0 km/h (0 Bft) N 0,00 h 0,2 C 1,0 C 0,0 km/h (0 Bft)
19.02.2023 19:00 1,5 C 8,6 C -22,2 C 1,0 C -0,0 C 0,0 C 85 % 99 % 1023,6 hPa 0,0 l/m 0,0 km/h (0 Bft) N 0,00 h -0,7 C -0,0 C 0,0 km/h (0 Bft)
19.02.2023 20:00 0,9 C 8,5 C -21,2 C 0,4 C -0,5 C 0,0 C 87 % 99 % 1024,1 hPa 0,0 l/m 0,0 km/h (0 Bft) N 0,00 h -1,0 C -0,5 C 0,0 km/h (0 Bft)
19.02.2023 21:00 0,1 C 8,4 C -23,7 C -0,4 C -1,4 C 0,0 C 87 % 98 % 1024,4 hPa 0,0 l/m 0,0 km/h (0 Bft) N 0,00 h -1,8 C -1,4 C 0,0 km/h (0 Bft)
19.02.2023 22:00 0,1 C 8,3 C -23,8 C -0,1 C -0,5 C 0,0 C 88 % 98 % 1024,5 hPa 0,0 l/m 0,0 km/h (0 Bft) N 0,00 h -1,6 C -0,5 C 0,0 km/h (0 Bft)
19.02.2023 23:00 0,5 C 8,2 C -23,0 C 0,6 C 0,6 C 0,1 C 89 % 99 % 1024,8 hPa 0,0 l/m 0,0 km/h (0 Bft) N 0,00 h -1,1 C 0,6 C 0,0 km/h (0 Bft)
Min-Datum _ 15.02.23 15.02.23 19.02.23 15.02.23 15.02.23 13.02.23 15.02.23 15.02.23 19.02.23 - 13.02.23 - - 15.02.23 15.02.23 13.02.23
_ Min-Zeit 07:30 11:55 21:55 07:20 07:20 17:40 14:10 16:35 06:05 - 00:00 - - 07:30 07:20 00:00
Minimum _ -4,1 C 4,9 C -25,2 C -4,4 C -5,1 C 0,0 C 47 % 0 % 1011,9 hPa - 0,0 km/h (0 Bft) - - -5,6 C -5,1 C 0,0 km/h (0 Bft)
Max-Datum _ 15.02.23 19.02.23 14.02.23 15.02.23 15.02.23 14.02.23 13.02.23 13.02.23 13.02.23 19.02.23 18.02.23 - 13.02.23 17.02.23 15.02.23 18.02.23
_ Max-Zeit 14:50 02:35 01:40 14:40 14:40 13:05 00:00 00:00 00:00 03:00 16:11 - 12:47 20:00 14:40 16:25
Maximum _ 13,9 C 9,7 C 73,0 C 18,4 C 18,4 C 7,4 C 89 % 99 % 1038,5 hPa 2,7 l/m 17,2 km/h
SW (3 Bft)
- 0,12 h 8,8 C 18,4 C 34,9 km/h
SW (5 Bft)
Durchschnitt _ 6,1 C 7,3 C 32,8 C 6,8 C 6,5 C 0,9 C 81 % 96 % 1025,4 hPa #15,1 l/m 2,6 km/h (1 Bft) SW #21:51 h 3,0 C 6,3 C 3,7 km/h (1 Bft)
2023 www.wetterstation-wechselburg.de